Accueil
METAR-TAF:

METAR-TAF

Aéroports :

Aéroport de Pérouse-Sant'Egidio

Pérouse, Italie

latitude: 43-05N, longitude: 012-30E, altitude: 208 m

Observation

Le bulletin a été fait il y a 1 heure et 19 minutes, à 22:50 UTC
Vent 2 kt de direction variable
Température 2°C
Humidité 87%
Pression 1021 hPa
Visibilité 10 km ou plus

METAR: LIRZ 162250Z AUTO VRB02KT 9999 NCD 02/00 Q1021

Heure: 01:09 (00:09 UTC)

Prévision

Le bulletin a été fait il y a 1 heure et 9 minutes, à 23:00 UTC
Prévision valable du 17 à 00 UTC au 17 à 24 UTC
Vent 5 kt de direction variable
Visibilité 10 km ou plus
Nuages épars à une hauteur de 4000 ft
Evoluant progressivement
du 17 à 07 UTC au 17 à 09 UTC
Vent 10 kt de sud
Temporairement
du 17 à 09 UTC au 17 à 12 UTC
pluie
Temporairement
du 17 à 12 UTC au 17 à 18 UTC
Visibilité: 4000 m
averses de pluie

TAF: LIRZ 162300Z 1700/1724 VRB05KT 9999 SCT040 BECMG 1707/1709 19010KT TEMPO 1709/1712 RA TEMPO 1712/1718 4000 SHRA

Observations et prévisions météorologiques de plus de 4000 aéroports (messages METAR et TAF).

Les stations disponibles sont représentées par des disques jaunes et rouges sur la carte.

Passer la souris dessus pour voir le nom de la station.

Cliquer dessus pour voir les observations et prévisions météorologiques.

Pour changer de carte: cliquez sur les boutons verts avec une croix noire pour zoomer, sur le bouton vert avec un tiret pour effectuer un zoom arrière, ou sur les flèches vertes pour les cartes adjacentes.


METAR-TAF: